FAHS/HDS METAR and TAF weather

Enter ICAO airport designator
Station Type Date Time Source
FAHS METAR 2020/06/06 13:00 UTC NOAA

FAHS 061300Z AUTO 19009KT //// // ////// 23/13 Q1026


Station Type Date Time Source
FAHS Decoded METAR 2020/06/06 13:00 UTC NOAA

Hoedspruit, South Africa (FAHS) 24-22S 031-02E 500M
Jun 06, 2020 - 09:00 AM EDT / 2020.06.06 1300 UTC
Wind: from the S (190 degrees) at 10 MPH (9 KT):0
Temperature: 73 F (23 C)
Dew Point: 55 F (13 C)
Relative Humidity: 53%
Pressure (altimeter): 30.30 in. Hg (1026 hPa)
ob: FAHS 061300Z AUTO 19009KT //// // ////// 23/13 Q1026
cycle: 13

Station Type Date Time Source
FAHS TAF 2017/05/23 04:01 UTC NOAA

TAF FAHS 230300Z 2304/2315 VRB02KT CAVOK TX29/2312ZTN12/2304Z

Example: see airport list